EFKE

Kemi-Tornio Airport

Kemi / Tornio, Finland
METAR EFKE 170450Z AUTO 15004KT CAVOK 03/03 Q1016
Observed Flight Rules
Oct-17 @ 04:50 UTC (29 minutes ago) Visual Flight Rules
Wind Visibility Clouds
150° at 4 knots 10,000+ meters
  • Clear skies
Temperatures Readings
Current 3°C / 37°F
Dewpoint 3°C / 37°F
Humidity 100%
Altimeter 30" Hg
Pressure 1016 hPa
Elevation 15
METAR EFKE 170450Z AUTO 15004KT CAVOK 03/03 Q1016
Observed Flight Rules
Oct-17 @ 04:50 UTC
(29 minutes ago)
VFR
Wind Visibility
150° at 4 knots 10,000+ meters
Clouds
  • Clear skies
Temperature Dewpoint
3°C / 37°F 3°C / 37°F
Humidity Altimeter Pressure
100% 30" Hg 1016 hPa